Time;durP1;ratioP1;P1;durP2;ratioP2;P2;SDS_P1;SDS_P2;PMS_P1;PMS_P2;Temp;Humidity;BMP_temperature;BMP_pressure;BME280_temperature;BME280_humidity;BME280_pressure;Samples;Min_cycle;Max_cycle;Signal;HPM_P1;HPM_P2
2021/09/08 00:01:46;;;;;;;4.57;3.58;;;17.20;98.70;;;;;;5012983;28;20121;-78
2021/09/08 00:04:13;;;;;;;5.70;3.40;;;17.20;98.20;;;;;;5013314;28;20422;-81
2021/09/08 00:06:40;;;;;;;5.90;3.85;;;17.20;98.20;;;;;;5011969;28;20065;-82
2021/09/08 00:09:08;;;;;;;4.15;3.75;;;17.10;98.50;;;;;;5013371;28;20026;-80
2021/09/08 00:11:35;;;;;;;4.10;3.70;;;17.30;98.50;;;;;;5013262;28;20025;-81
2021/09/08 00:14:02;;;;;;;4.53;3.10;;;17.50;98.40;;;;;;5013519;28;20105;-81
2021/09/08 00:16:30;;;;;;;5.60;3.30;;;17.80;97.70;;;;;;5014091;28;20021;-81
2021/09/08 00:18:57;;;;;;;5.10;3.53;;;17.90;97.00;;;;;;5013414;28;20109;-83
2021/09/08 00:21:25;;;;;;;7.57;3.47;;;17.90;98.00;;;;;;5013007;28;20403;-83
2021/09/08 00:23:52;;;;;;;4.85;3.60;;;18.10;98.30;;;;;;5014309;28;20028;-80
2021/09/08 00:26:19;;;;;;;7.75;4.60;;;18.20;97.80;;;;;;5013207;28;20168;-82
2021/09/08 00:28:47;;;;;;;8.23;3.90;;;18.40;97.80;;;;;;5012823;28;20049;-82
2021/09/08 00:31:14;;;;;;;7.55;3.70;;;18.40;97.60;;;;;;5011829;28;20548;-81
2021/09/08 00:33:41;;;;;;;7.10;3.90;;;18.30;98.10;;;;;;5012656;28;20393;-79
2021/09/08 00:36:10;;;;;;;4.78;3.33;;;18.50;97.60;;;;;;5013917;28;20021;-81
2021/09/08 00:38:37;;;;;;;7.07;3.40;;;18.30;97.50;;;;;;5001194;28;20101;-80
2021/09/08 00:41:05;;;;;;;6.57;3.65;;;18.20;97.80;;;;;;5018842;28;20034;-80
2021/09/08 00:43:32;;;;;;;6.82;3.72;;;18.30;97.60;;;;;;5015944;28;20057;-80
2021/09/08 00:45:59;;;;;;;6.18;3.97;;;18.60;97.90;;;;;;5015684;28;20486;-80
2021/09/08 00:48:27;;;;;;;4.72;4.10;;;18.70;97.20;;;;;;5015475;28;20145;-81
2021/09/08 00:50:56;;;;;;;4.03;3.60;;;18.80;97.40;;;;;;5017068;28;20385;-80
2021/09/08 00:53:23;;;;;;;5.88;3.72;;;18.90;97.10;;;;;;5015377;28;20033;-80
2021/09/08 00:55:51;;;;;;;4.40;3.42;;;19.00;97.30;;;;;;5015225;28;20054;-80
2021/09/08 00:58:19;;;;;;;3.75;3.35;;;19.10;97.10;;;;;;5015804;28;20026;-80
2021/09/08 01:00:46;;;;;;;8.80;3.95;;;19.20;97.20;;;;;;5016867;28;20033;-80
2021/09/08 01:03:14;;;;;;;6.38;3.92;;;19.20;96.50;;;;;;5015784;28;20119;-80
2021/09/08 01:05:42;;;;;;;8.27;3.80;;;19.30;96.80;;;;;;5015215;28;20463;-80
2021/09/08 01:08:10;;;;;;;4.43;3.30;;;19.50;97.00;;;;;;5015261;28;20061;-81
2021/09/08 01:10:37;;;;;;;5.68;3.10;;;19.60;96.70;;;;;;5016348;28;20026;-80
2021/09/08 01:13:05;;;;;;;7.97;3.53;;;19.50;96.50;;;;;;5016877;28;20024;-80
2021/09/08 01:15:33;;;;;;;5.80;3.33;;;19.60;96.20;;;;;;5017565;28;20377;-81
2021/09/08 01:18:00;;;;;;;7.47;3.60;;;19.60;96.50;;;;;;5017438;28;20111;-80
2021/09/08 01:20:27;;;;;;;6.60;3.55;;;19.70;96.30;;;;;;5014859;28;20062;-79
2021/09/08 01:22:55;;;;;;;6.72;3.17;;;19.80;96.40;;;;;;5014979;28;20471;-81
2021/09/08 01:25:25;;;;;;;7.05;3.15;;;19.80;96.20;;;;;;5015953;28;20105;-80
2021/09/08 01:27:54;;;;;;;5.78;3.05;;;19.90;95.80;;;;;;5014481;28;20030;-80
2021/09/08 01:30:26;;;;;;;8.52;3.42;;;20.10;96.00;;;;;;4998293;28;20030;-80
2021/09/08 01:32:55;;;;;;;4.47;3.13;;;20.30;95.50;;;;;;5014698;28;20045;-80
2021/09/08 01:35:23;;;;;;;3.65;2.75;;;20.30;93.20;;;;;;5014273;28;20024;-81
2021/09/08 01:37:50;;;;;;;5.00;3.17;;;20.50;93.60;;;;;;5014563;28;20133;-81
2021/09/08 01:40:19;;;;;;;5.65;3.30;;;20.80;94.10;;;;;;5015542;28;20018;-81
2021/09/08 01:42:47;;;;;;;7.85;3.58;;;21.20;92.70;;;;;;5015054;28;20092;-80
2021/09/08 01:45:19;;;;;;;4.00;3.50;;;21.30;92.10;;;;;;5015510;28;20431;-79
2021/09/08 01:47:48;;;;;;;5.95;3.78;;;21.20;92.00;;;;;;5014106;28;20561;-81
2021/09/08 01:50:15;;;;;;;6.07;3.20;;;21.10;91.80;;;;;;5015550;28;20084;-80
2021/09/08 01:52:43;;;;;;;5.75;3.60;;;21.20;91.60;;;;;;5017235;28;20030;-80
2021/09/08 01:55:11;;;;;;;6.68;3.50;;;21.20;92.00;;;;;;5018353;28;20029;-79
2021/09/08 01:57:39;;;;;;;8.50;3.45;;;21.60;93.30;;;;;;5026090;28;20410;-81
2021/09/08 02:00:09;;;;;;;8.00;3.83;;;21.40;94.00;;;;;;5023378;28;20030;-81
2021/09/08 02:02:36;;;;;;;6.43;3.73;;;21.40;93.60;;;;;;5023322;28;20030;-80
2021/09/08 02:05:04;;;;;;;6.75;3.88;;;21.50;93.80;;;;;;5022803;28;20070;-82
2021/09/08 02:07:31;;;;;;;8.50;3.50;;;21.40;93.70;;;;;;5018384;28;20032;-81
2021/09/08 02:09:59;;;;;;;7.13;3.88;;;21.30;93.40;;;;;;5022935;28;20025;-81
2021/09/08 02:12:26;;;;;;;5.00;3.10;;;20.90;93.70;;;;;;5021663;28;20037;-81
2021/09/08 02:14:53;;;;;;;5.65;3.00;;;20.90;94.50;;;;;;5022462;28;20364;-81
2021/09/08 02:17:21;;;;;;;5.65;3.67;;;20.90;94.40;;;;;;5022225;28;20096;-79
2021/09/08 02:19:48;;;;;;;7.22;3.42;;;21.00;94.60;;;;;;5022580;28;20161;-80
2021/09/08 02:22:15;;;;;;;8.95;4.28;;;21.00;95.00;;;;;;5027041;28;20032;-80
2021/09/08 02:24:43;;;;;;;8.93;3.42;;;21.40;94.70;;;;;;5027153;28;20120;-81
2021/09/08 02:27:11;;;;;;;9.00;3.80;;;21.50;94.00;;;;;;5021530;28;20025;-81
2021/09/08 02:29:39;;;;;;;7.60;3.47;;;21.30;94.00;;;;;;5027597;28;20025;-80
2021/09/08 02:32:06;;;;;;;7.75;3.70;;;21.30;94.70;;;;;;5026669;28;20018;-81
2021/09/08 02:34:34;;;;;;;6.65;3.00;;;21.40;94.90;;;;;;5024324;28;20030;-81
2021/09/08 02:37:02;;;;;;;8.85;3.10;;;21.30;94.10;;;;;;5016650;28;20026;-80
2021/09/08 02:39:30;;;;;;;8.00;3.95;;;21.30;94.90;;;;;;5018886;28;20056;-82
2021/09/08 02:41:58;;;;;;;7.28;3.78;;;21.20;94.40;;;;;;5018820;28;20022;-81
2021/09/08 02:44:25;;;;;;;12.73;3.67;;;21.10;95.30;;;;;;5016275;28;20030;-82
2021/09/08 02:46:52;;;;;;;7.78;3.40;;;21.10;94.70;;;;;;5021188;28;20036;-77
2021/09/08 02:49:20;;;;;;;6.65;3.60;;;21.20;94.90;;;;;;5022518;28;20030;-80
2021/09/08 02:51:47;;;;;;;6.43;3.10;;;21.30;95.00;;;;;;5023103;28;20478;-81
2021/09/08 02:54:14;;;;;;;8.23;3.55;;;21.20;95.00;;;;;;5024011;28;20017;-80
2021/09/08 02:56:42;;;;;;;7.97;4.05;;;21.10;95.40;;;;;;5017038;28;20018;-83
2021/09/08 02:59:09;;;;;;;7.28;3.28;;;21.20;95.40;;;;;;5018131;28;20048;-82
2021/09/08 03:01:36;;;;;;;6.35;3.25;;;21.20;95.80;;;;;;5015391;28;20058;-80
2021/09/08 03:04:04;;;;;;;8.20;3.65;;;21.20;95.40;;;;;;5012946;28;20398;-81
2021/09/08 03:06:31;;;;;;;7.18;3.80;;;21.40;95.80;;;;;;5013607;28;20053;-82
2021/09/08 03:08:58;;;;;;;5.88;3.05;;;21.40;95.50;;;;;;5013073;28;20482;-80
2021/09/08 03:11:26;;;;;;;6.57;3.65;;;21.10;95.40;;;;;;5013146;28;20018;-83
2021/09/08 03:13:55;;;;;;;5.95;3.30;;;21.10;95.70;;;;;;5014575;28;20022;-82
2021/09/08 03:16:22;;;;;;;6.45;3.58;;;21.10;96.30;;;;;;5014319;28;20017;-81
2021/09/08 03:18:50;;;;;;;7.70;3.95;;;21.10;96.40;;;;;;5014264;28;20034;-81
2021/09/08 03:21:17;;;;;;;5.72;3.90;;;21.20;96.00;;;;;;5013356;28;20029;-83
2021/09/08 03:23:44;;;;;;;10.15;3.83;;;21.40;96.40;;;;;;5014475;28;20562;-83
2021/09/08 03:26:12;;;;;;;8.40;4.05;;;21.50;96.50;;;;;;5012728;28;20030;-82
2021/09/08 03:28:39;;;;;;;7.53;3.38;;;21.20;96.40;;;;;;5012901;28;20101;-83
2021/09/08 03:31:06;;;;;;;7.40;3.30;;;21.20;96.60;;;;;;5014434;28;20025;-82
2021/09/08 03:33:33;;;;;;;6.78;3.42;;;21.20;97.30;;;;;;5013972;28;20026;-82
2021/09/08 03:36:01;;;;;;;7.43;3.10;;;21.20;96.90;;;;;;5014639;28;20021;-81
2021/09/08 03:38:28;;;;;;;6.72;3.45;;;21.10;96.90;;;;;;5013361;28;20030;-83
2021/09/08 03:40:55;;;;;;;7.00;3.50;;;21.30;97.20;;;;;;5013828;28;20030;-83
2021/09/08 03:43:23;;;;;;;8.18;3.85;;;21.20;96.60;;;;;;5014436;28;20030;-83
2021/09/08 03:45:50;;;;;;;9.25;3.60;;;21.40;96.60;;;;;;5015930;28;20021;-83
2021/09/08 03:48:17;;;;;;;12.43;3.45;;;21.40;96.90;;;;;;5013769;28;20097;-84
2021/09/08 03:50:45;;;;;;;7.40;3.40;;;21.40;96.40;;;;;;5013551;28;20501;-85
2021/09/08 03:53:12;;;;;;;9.68;3.38;;;21.50;96.10;;;;;;5013465;28;20018;-82
2021/09/08 03:55:39;;;;;;;8.20;3.67;;;21.40;96.50;;;;;;5013196;28;20018;-83
2021/09/08 03:58:07;;;;;;;6.00;3.38;;;21.40;96.50;;;;;;5014284;28;20057;-84
2021/09/08 04:00:34;;;;;;;9.18;3.80;;;21.30;96.40;;;;;;5012387;28;20375;-81
2021/09/08 04:03:01;;;;;;;6.85;3.83;;;21.50;96.10;;;;;;5012648;28;20030;-80
2021/09/08 04:05:29;;;;;;;9.75;3.65;;;21.50;97.40;;;;;;5014503;28;20057;-80
2021/09/08 04:07:56;;;;;;;7.15;3.88;;;21.40;96.30;;;;;;5014076;28;20556;-83
2021/09/08 04:10:23;;;;;;;8.48;3.40;;;21.40;96.40;;;;;;5012670;28;20387;-82
2021/09/08 04:12:51;;;;;;;7.82;3.70;;;21.30;96.80;;;;;;5015853;28;20022;-81
2021/09/08 04:15:19;;;;;;;6.07;3.22;;;21.20;96.50;;;;;;5017901;28;20025;-82
2021/09/08 04:17:46;;;;;;;7.57;3.20;;;21.10;95.80;;;;;;5015882;28;20030;-84
2021/09/08 04:20:13;;;;;;;5.25;3.28;;;21.00;95.90;;;;;;5017186;28;20072;-82
2021/09/08 04:22:42;;;;;;;6.10;3.10;;;20.90;96.00;;;;;;5020857;28;20549;-82
2021/09/08 04:25:09;;;;;;;7.57;3.28;;;21.00;96.30;;;;;;5019745;28;20457;-79
2021/09/08 04:27:37;;;;;;;4.30;2.80;;;21.10;96.10;;;;;;5018887;28;20030;-80
2021/09/08 04:30:06;;;;;;;5.80;3.22;;;21.10;96.00;;;;;;5018065;28;20498;-81
2021/09/08 04:32:33;;;;;;;9.30;3.33;;;20.90;96.00;;;;;;5018274;28;20467;-83
2021/09/08 04:35:01;;;;;;;9.18;3.03;;;21.00;95.30;;;;;;5018594;28;20025;-81
2021/09/08 04:37:28;;;;;;;8.23;3.33;;;21.10;95.90;;;;;;5019257;28;20018;-81
2021/09/08 04:39:56;;;;;;;6.70;3.20;;;20.90;96.10;;;;;;5017404;28;20037;-82
2021/09/08 04:42:23;;;;;;;7.18;3.22;;;21.00;96.40;;;;;;5017931;28;20036;-80
2021/09/08 04:44:50;;;;;;;8.50;3.55;;;20.90;96.40;;;;;;5015867;28;20022;-81
2021/09/08 04:47:18;;;;;;;6.53;2.53;;;21.10;97.20;;;;;;5015747;28;20097;-81
2021/09/08 04:49:45;;;;;;;6.60;2.75;;;21.10;96.40;;;;;;5017023;28;20469;-82
2021/09/08 04:52:12;;;;;;;6.20;2.60;;;21.00;96.80;;;;;;5016956;28;20045;-81
2021/09/08 04:54:40;;;;;;;5.57;2.97;;;21.00;97.50;;;;;;5016452;28;20026;-80
2021/09/08 04:57:07;;;;;;;5.85;3.05;;;21.10;96.70;;;;;;5016202;28;20032;-80
2021/09/08 04:59:34;;;;;;;7.07;2.95;;;21.00;97.00;;;;;;5015661;28;20030;-80
2021/09/08 05:02:02;;;;;;;5.07;2.80;;;20.90;96.80;;;;;;5017066;28;20092;-79
2021/09/08 05:04:29;;;;;;;8.85;3.15;;;20.90;97.30;;;;;;5015194;28;20038;-80
2021/09/08 05:06:57;;;;;;;4.47;3.00;;;20.80;96.50;;;;;;5017741;28;20559;-81
2021/09/08 05:09:24;;;;;;;5.50;2.90;;;20.70;96.90;;;;;;5018987;28;20156;-80
2021/09/08 05:11:51;;;;;;;5.60;3.30;;;20.60;97.20;;;;;;5015763;28;20125;-78
2021/09/08 05:14:18;;;;;;;6.93;3.60;;;20.30;97.00;;;;;;5016980;28;20490;-78
2021/09/08 05:16:46;;;;;;;5.72;3.00;;;20.30;97.10;;;;;;5017504;28;20510;-79
2021/09/08 05:19:13;;;;;;;6.15;3.00;;;20.10;97.50;;;;;;5016641;28;20371;-80
2021/09/08 05:21:40;;;;;;;6.72;3.00;;;20.10;97.80;;;;;;5020239;28;20037;-81
2021/09/08 05:24:08;;;;;;;6.15;3.42;;;20.10;97.70;;;;;;5015315;28;20493;-79
2021/09/08 05:26:35;;;;;;;6.47;3.40;;;20.30;98.80;;;;;;5016491;28;20433;-81
2021/09/08 05:29:03;;;;;;;4.43;3.15;;;20.20;97.40;;;;;;5016191;28;20097;-81
2021/09/08 05:31:30;;;;;;;7.97;3.33;;;20.10;98.00;;;;;;5016715;28;20025;-80
2021/09/08 05:33:58;;;;;;;8.63;3.20;;;20.10;98.30;;;;;;5015136;28;20104;-79
2021/09/08 05:36:28;;;;;;;8.73;3.33;;;19.90;98.20;;;;;;5017084;28;20018;-81
2021/09/08 05:38:56;;;;;;;5.32;3.28;;;19.90;98.00;;;;;;5014952;28;20036;-80
2021/09/08 05:41:23;;;;;;;4.28;3.00;;;19.80;98.70;;;;;;5015680;28;20044;-79
2021/09/08 05:43:50;;;;;;;7.35;3.30;;;19.90;98.60;;;;;;5016503;28;20080;-80
2021/09/08 05:46:18;;;;;;;7.72;3.33;;;19.90;98.70;;;;;;5018083;28;20022;-81
2021/09/08 05:48:45;;;;;;;7.25;3.88;;;19.90;99.30;;;;;;5015353;28;20394;-81
2021/09/08 05:51:13;;;;;;;7.93;3.80;;;19.90;99.40;;;;;;5014856;28;20032;-81
2021/09/08 05:53:40;;;;;;;6.90;3.70;;;19.60;99.20;;;;;;5015451;28;20029;-76
2021/09/08 05:56:07;;;;;;;5.35;3.67;;;19.60;99.50;;;;;;5018586;28;20376;-82
2021/09/08 05:58:35;;;;;;;8.55;3.58;;;19.60;99.80;;;;;;5015267;28;20048;-83
2021/09/08 06:01:02;;;;;;;8.35;3.15;;;19.60;99.90;;;;;;5014360;28;20038;-82
2021/09/08 06:03:29;;;;;;;6.15;3.05;;;19.50;99.80;;;;;;5015727;28;20029;-83
2021/09/08 06:05:57;;;;;;;8.20;3.45;;;19.60;99.90;;;;;;5015600;28;20060;-82
2021/09/08 06:08:24;;;;;;;7.22;3.45;;;19.60;99.90;;;;;;5014316;28;20032;-81
2021/09/08 06:10:51;;;;;;;5.68;3.85;;;19.50;99.90;;;;;;5016177;28;20037;-81
2021/09/08 06:13:19;;;;;;;7.85;3.42;;;19.30;99.90;;;;;;5014378;28;20372;-82
2021/09/08 06:15:46;;;;;;;6.20;3.47;;;19.40;99.90;;;;;;5016110;28;20025;-83
2021/09/08 06:18:13;;;;;;;5.75;3.80;;;19.30;99.90;;;;;;5014713;28;20555;-81
2021/09/08 06:20:41;;;;;;;8.25;3.60;;;19.30;99.90;;;;;;5014460;28;20030;-83
2021/09/08 06:23:11;;;;;;;6.60;3.70;;;19.20;99.90;;;;;;5016636;28;20477;-80
2021/09/08 06:25:39;;;;;;;6.10;3.95;;;19.10;99.90;;;;;;5015874;28;20053;-80
2021/09/08 06:28:06;;;;;;;6.93;3.47;;;19.00;99.90;;;;;;5014390;28;20391;-81
2021/09/08 06:30:34;;;;;;;7.80;3.30;;;18.90;99.90;;;;;;5014451;28;20029;-81
2021/09/08 06:33:01;;;;;;;9.60;3.67;;;18.80;99.90;;;;;;5014598;28;20033;-84
2021/09/08 06:35:29;;;;;;;6.82;3.50;;;18.80;99.90;;;;;;5013601;28;20034;-82
2021/09/08 06:37:56;;;;;;;8.85;4.00;;;18.60;99.90;;;;;;5014370;28;20443;-80
2021/09/08 06:40:24;;;;;;;7.25;3.35;;;18.60;99.90;;;;;;5015794;28;20364;-81
2021/09/08 06:42:51;;;;;;;7.97;3.83;;;18.50;99.90;;;;;;5013613;28;20157;-80
2021/09/08 06:45:18;;;;;;;8.82;3.88;;;18.40;99.90;;;;;;5013862;28;20077;-81
2021/09/08 06:47:46;;;;;;;6.53;3.83;;;18.30;99.90;;;;;;5015307;28;20029;-81
2021/09/08 06:50:13;;;;;;;9.88;4.15;;;18.20;99.90;;;;;;5013743;28;20434;-82
2021/09/08 06:52:41;;;;;;;10.60;4.07;;;18.10;99.90;;;;;;4997029;28;20026;-80
2021/09/08 06:55:09;;;;;;;7.13;4.30;;;18.00;99.90;;;;;;5013875;28;20022;-81
2021/09/08 06:57:36;;;;;;;9.75;4.20;;;18.00;99.90;;;;;;5014913;28;20026;-81
2021/09/08 07:00:05;;;;;;;8.23;4.40;;;17.90;99.90;;;;;;5013394;28;20037;-81
2021/09/08 07:02:32;;;;;;;6.40;3.92;;;17.80;99.90;;;;;;5014910;28;20025;-84
2021/09/08 07:05:00;;;;;;;9.80;4.10;;;17.70;99.90;;;;;;5017811;28;20058;-81
2021/09/08 07:07:27;;;;;;;9.18;3.92;;;17.70;99.90;;;;;;5017334;28;20449;-81
2021/09/08 07:09:55;;;;;;;10.32;4.35;;;17.50;99.90;;;;;;5019132;28;20022;-81
2021/09/08 07:12:22;;;;;;;8.95;4.25;;;17.50;99.90;;;;;;5014434;28;20022;-80
2021/09/08 07:14:49;;;;;;;7.63;3.95;;;17.40;99.90;;;;;;5014321;28;20561;-80
2021/09/08 07:17:17;;;;;;;8.45;4.47;;;17.30;99.90;;;;;;5015037;28;20386;-80
2021/09/08 07:19:44;;;;;;;9.85;4.55;;;17.20;99.90;;;;;;5015472;28;20026;-80
2021/09/08 07:22:11;;;;;;;14.93;5.45;;;17.10;99.90;;;;;;5014004;28;20052;-81
2021/09/08 07:24:41;;;;;;;9.98;4.95;;;17.00;99.90;;;;;;5013538;28;20391;-81
2021/09/08 07:27:09;;;;;;;13.10;5.30;;;17.00;99.90;;;;;;5017649;28;20096;-80
2021/09/08 07:29:36;;;;;;;12.50;4.78;;;16.90;99.90;;;;;;5017761;28;20030;-75
2021/09/08 07:32:05;;;;;;;10.90;4.65;;;16.80;99.90;;;;;;5020385;28;20086;-78
2021/09/08 07:34:33;;;;;;;12.43;5.32;;;16.70;99.90;;;;;;5014402;28;20018;-77
2021/09/08 07:37:00;;;;;;;10.15;4.35;;;16.70;99.90;;;;;;5016833;28;20026;-77
2021/09/08 07:39:29;;;;;;;11.60;5.20;;;16.60;99.90;;;;;;5022127;28;20026;-76
2021/09/08 07:41:57;;;;;;;10.70;5.10;;;16.50;99.90;;;;;;5023360;28;20026;-77
2021/09/08 07:44:25;;;;;;;9.80;4.97;;;16.50;99.90;;;;;;5030478;28;20026;-78
2021/09/08 07:46:52;;;;;;;15.75;5.28;;;16.40;99.90;;;;;;5027081;28;20029;-79
2021/09/08 07:49:19;;;;;;;8.65;4.63;;;16.30;99.90;;;;;;5027981;28;20026;-78
2021/09/08 07:51:47;;;;;;;11.38;4.72;;;16.20;99.90;;;;;;5105719;23;20052;-76
2021/09/08 07:54:15;;;;;;;9.82;5.40;;;16.20;99.90;;;;;;5016441;28;20034;-76
2021/09/08 07:56:42;;;;;;;14.65;5.57;;;16.10;99.90;;;;;;5012148;28;20006;-76
2021/09/08 07:59:09;;;;;;;10.73;5.00;;;16.00;99.90;;;;;;5008598;28;20022;-76
2021/09/08 08:01:36;;;;;;;10.23;5.00;;;16.00;99.90;;;;;;5010373;28;20018;-76
2021/09/08 08:04:04;;;;;;;9.07;5.10;;;15.90;99.90;;;;;;5004251;28;20109;-75
2021/09/08 08:06:31;;;;;;;9.60;5.18;;;15.90;99.90;;;;;;5008213;28;20033;-76
2021/09/08 08:08:59;;;;;;;12.25;6.40;;;15.80;99.90;;;;;;5006747;28;20042;-76
2021/09/08 08:11:26;;;;;;;12.30;5.90;;;15.70;99.90;;;;;;5010184;28;20094;-77
2021/09/08 08:13:53;;;;;;;13.30;5.43;;;15.70;99.90;;;;;;5012821;28;20014;-76
2021/09/08 08:16:21;;;;;;;12.95;6.25;;;15.70;99.90;;;;;;5010040;28;20031;-76
2021/09/08 08:18:48;;;;;;;12.43;5.82;;;15.60;99.90;;;;;;5006761;28;20027;-76
2021/09/08 08:21:16;;;;;;;13.60;6.07;;;15.60;99.90;;;;;;5008770;28;20019;-77
2021/09/08 08:23:43;;;;;;;11.10;6.18;;;15.50;99.90;;;;;;5010571;28;20029;-76
2021/09/08 08:26:10;;;;;;;12.35;6.05;;;15.50;99.90;;;;;;5013196;28;20046;-76
2021/09/08 08:28:38;;;;;;;13.05;6.30;;;15.50;99.90;;;;;;5011823;28;20018;-76
2021/09/08 08:31:05;;;;;;;12.88;6.13;;;15.40;99.90;;;;;;5010566;28;20025;-76
2021/09/08 08:33:32;;;;;;;15.55;6.85;;;15.40;99.90;;;;;;5010778;28;20015;-77
2021/09/08 08:36:00;;;;;;;14.50;6.55;;;15.30;99.90;;;;;;5011040;28;20149;-77
2021/09/08 08:38:28;;;;;;;12.25;7.35;;;15.30;99.90;;;;;;5011949;28;20498;-76
2021/09/08 08:40:56;;;;;;;14.35;7.00;;;15.30;99.90;;;;;;5013447;28;20023;-77
2021/09/08 08:43:24;;;;;;;11.32;6.75;;;15.30;99.90;;;;;;5009827;28;20089;-75
2021/09/08 08:45:51;;;;;;;11.55;7.65;;;15.20;99.90;;;;;;5009708;28;20092;-77
2021/09/08 08:48:19;;;;;;;16.02;7.50;;;15.30;99.90;;;;;;5010671;28;20070;-75
2021/09/08 08:50:46;;;;;;;11.07;7.78;;;15.30;99.90;;;;;;5005185;28;20026;-77
2021/09/08 08:53:13;;;;;;;13.30;8.00;;;15.20;99.90;;;;;;5004867;28;20045;-78
2021/09/08 08:55:41;;;;;;;18.02;9.02;;;15.10;99.90;;;;;;5005008;28;20073;-76
2021/09/08 08:58:08;;;;;;;15.15;8.68;;;15.10;99.90;;;;;;5002855;28;20471;-76
2021/09/08 09:00:36;;;;;;;21.30;9.48;;;15.10;99.90;;;;;;5002456;28;20049;-77
2021/09/08 09:03:04;;;;;;;18.65;9.07;;;15.00;99.90;;;;;;5009041;28;20029;-76
2021/09/08 09:05:38;;;;;;;18.08;9.10;;;15.00;99.90;;;;;;4998166;28;20380;-74
2021/09/08 09:08:08;;;;;;;15.73;10.00;;;15.00;99.90;;;;;;4998862;28;20033;-76
2021/09/08 09:10:38;;;;;;;19.02;10.30;;;14.90;99.90;;;;;;5007599;28;20501;-76
2021/09/08 09:13:08;;;;;;;20.17;10.50;;;14.90;99.90;;;;;;5005621;28;20077;-76
2021/09/08 09:15:36;;;;;;;14.25;9.70;;;14.90;99.90;;;;;;5004358;28;20089;-75
2021/09/08 09:18:03;;;;;;;15.38;9.77;;;14.90;99.90;;;;;;5011101;28;20033;-77
2021/09/08 09:20:32;;;;;;;21.55;9.68;;;14.90;99.90;;;;;;5004480;28;20022;-76
2021/09/08 09:23:04;;;;;;;20.63;10.30;;;15.00;99.90;;;;;;5001033;28;20026;-77
2021/09/08 09:25:36;;;;;;;20.38;10.80;;;14.90;99.90;;;;;;5004728;28;20451;-77
2021/09/08 09:28:06;;;;;;;18.83;10.40;;;15.00;99.90;;;;;;5001134;28;20026;-78
2021/09/08 09:30:41;;;;;;;16.65;10.60;;;15.10;99.90;;;;;;5008409;28;20026;-80
2021/09/08 09:33:09;;;;;;;21.48;10.70;;;15.00;99.90;;;;;;5009201;28;20022;-77
2021/09/08 09:35:36;;;;;;;18.25;10.20;;;14.90;99.90;;;;;;5006513;28;20086;-75
2021/09/08 09:38:07;;;;;;;23.50;10.55;;;14.80;99.90;;;;;;5005673;28;20082;-79
2021/09/08 09:40:38;;;;;;;;;;;14.90;99.90;;;;;;5000196;28;20115;-78
2021/09/08 09:43:11;;;;;;;19.52;10.70;;;14.80;99.90;;;;;;4999752;28;19912;-77
2021/09/08 09:45:40;;;;;;;22.17;11.88;;;14.80;99.90;;;;;;4997186;28;20033;-77
2021/09/08 09:48:09;;;;;;;23.77;10.50;;;14.80;99.90;;;;;;5000306;28;20026;-80
2021/09/08 09:50:38;;;;;;;19.38;11.30;;;14.70;99.90;;;;;;5007905;28;20026;-77
2021/09/08 09:53:06;;;;;;;18.83;11.65;;;14.70;99.90;;;;;;4999820;28;20034;-79
2021/09/08 09:55:33;;;;;;;30.45;11.95;;;14.70;99.90;;;;;;4998269;28;20033;-79
2021/09/08 09:58:00;;;;;;;18.52;11.68;;;14.70;99.90;;;;;;5005617;28;20027;-78
2021/09/08 10:00:29;;;;;;;23.23;11.88;;;14.60;99.90;;;;;;4995984;28;20112;-78
2021/09/08 10:02:57;;;;;;;20.13;12.45;;;14.70;99.90;;;;;;5000155;28;20022;-78
2021/09/08 10:05:25;;;;;;;21.40;13.15;;;14.60;99.90;;;;;;4999946;28;20030;-79
2021/09/08 10:07:52;;;;;;;21.92;12.23;;;14.60;99.90;;;;;;5005851;28;20026;-79
2021/09/08 10:10:30;;;;;;;20.67;13.27;;;14.60;99.90;;;;;;5003114;28;20018;-79
2021/09/08 10:13:06;;;;;;;27.10;13.57;;;14.60;99.90;;;;;;5009333;28;20348;-79
2021/09/08 10:15:34;;;;;;;25.83;13.38;;;14.60;99.90;;;;;;5006167;28;20022;-80
2021/09/08 10:18:14;;;;;;;21.45;12.82;;;14.60;99.90;;;;;;5003458;28;20026;-79
2021/09/08 10:20:45;;;;;;;19.42;11.70;;;14.50;99.90;;;;;;5002879;28;20070;-79
2021/09/08 10:23:17;;;;;;;27.67;12.10;;;14.60;99.90;;;;;;5006371;28;20030;-78
2021/09/08 10:25:48;;;;;;;21.15;11.70;;;14.60;99.90;;;;;;5001595;28;20023;-80
2021/09/08 10:28:18;;;;;;;24.38;12.23;;;14.50;99.90;;;;;;5001623;28;20121;-79
2021/09/08 10:30:47;;;;;;;30.65;12.30;;;14.50;99.90;;;;;;4999306;28;20110;-82
2021/09/08 10:33:16;;;;;;;24.50;12.65;;;14.50;99.90;;;;;;4996596;28;20041;-80
2021/09/08 10:35:44;;;;;;;20.95;10.82;;;14.40;99.90;;;;;;4997204;28;20048;-79
2021/09/08 10:38:18;;;;;;;20.85;11.32;;;14.40;99.90;;;;;;4999124;28;20077;-80
2021/09/08 10:40:48;;;;;;;26.90;12.57;;;14.30;99.90;;;;;;5001518;28;20050;-80
2021/09/08 10:43:16;;;;;;;25.05;12.45;;;14.30;99.90;;;;;;5011822;28;20011;-78
2021/09/08 10:45:54;;;;;;;20.95;12.10;;;14.30;99.90;;;;;;5008968;28;20022;-78
2021/09/08 10:48:39;;;;;;;27.83;13.02;;;14.20;99.90;;;;;;5009714;28;20049;-79
2021/09/08 10:51:16;;;;;;;26.30;12.02;;;14.20;99.90;;;;;;5010618;28;20073;-78
2021/09/08 10:53:44;;;;;;;23.10;11.13;;;14.20;99.90;;;;;;5002225;28;20046;-79
2021/09/08 10:56:11;;;;;;;18.42;11.05;;;14.20;99.90;;;;;;5000555;28;20033;-79
2021/09/08 10:59:01;;;;;;;27.05;12.13;;;14.20;99.90;;;;;;5005135;28;20026;-79
2021/09/08 11:01:29;;;;;;;25.58;11.82;;;14.10;99.90;;;;;;5002874;28;20495;-79
2021/09/08 11:03:56;;;;;;;26.17;11.85;;;14.20;99.90;;;;;;5004220;28;20391;-79
2021/09/08 11:06:38;;;;;;;21.13;12.00;;;14.10;99.90;;;;;;5006042;28;20077;-80
2021/09/08 11:09:09;;;;;;;26.05;12.40;;;14.10;99.90;;;;;;5004999;28;20041;-79
2021/09/08 11:11:58;;;;;;;21.40;11.73;;;14.10;99.90;;;;;;4995148;28;20479;-80
2021/09/08 11:14:47;;;;;;;16.60;11.23;;;14.10;99.90;;;;;;4998699;28;20027;-80
2021/09/08 11:17:25;;;;;;;18.60;11.63;;;14.10;99.90;;;;;;4997193;28;20023;-79
2021/09/08 11:20:03;;;;;;;23.23;11.98;;;14.10;99.90;;;;;;4979487;28;20045;-79
2021/09/08 11:22:31;;;;;;;24.60;11.90;;;14.10;99.90;;;;;;4995342;28;20367;-81
2021/09/08 11:25:09;;;;;;;21.40;12.07;;;14.20;99.90;;;;;;4995540;28;20101;-79
2021/09/08 11:27:40;;;;;;;21.58;12.40;;;14.20;99.90;;;;;;4994411;28;20376;-83
2021/09/08 11:30:13;;;;;;;25.40;11.40;;;14.20;99.90;;;;;;4994354;28;20550;-80
2021/09/08 11:32:55;;;;;;;18.17;11.73;;;14.20;99.90;;;;;;4993823;28;20030;-80
2021/09/08 11:35:45;;;;;;;25.90;11.93;;;14.20;99.90;;;;;;4994238;28;20479;-82
2021/09/08 11:38:17;;;;;;;19.15;12.40;;;14.10;99.90;;;;;;4993657;28;20088;-81
2021/09/08 11:40:52;;;;;;;19.58;12.45;;;14.00;99.90;;;;;;4995581;28;20431;-80
2021/09/08 11:43:33;;;;;;;20.70;12.40;;;14.00;99.90;;;;;;4993948;28;20027;-80
2021/09/08 11:46:16;;;;;;;19.00;12.27;;;13.90;99.90;;;;;;4994207;28;20026;-81
2021/09/08 11:48:45;;;;;;;17.13;12.02;;;13.90;99.90;;;;;;4995010;28;20395;-80
2021/09/08 11:51:15;;;;;;;24.05;12.93;;;13.90;99.90;;;;;;4995039;28;20037;-80
2021/09/08 11:53:43;;;;;;;25.50;12.95;;;13.80;99.90;;;;;;4994679;28;20049;-80
2021/09/08 11:56:15;;;;;;;23.02;12.82;;;13.80;99.90;;;;;;4993884;28;20065;-81
2021/09/08 11:58:48;;;;;;;17.35;12.48;;;13.80;99.90;;;;;;4994995;28;20082;-80
2021/09/08 12:01:16;;;;;;;19.80;12.35;;;13.70;99.90;;;;;;4994769;28;20482;-80
2021/09/08 12:03:50;;;;;;;22.27;14.18;;;13.70;99.90;;;;;;4993708;28;20445;-79
2021/09/08 12:06:20;;;;;;;29.13;15.00;;;13.80;99.90;;;;;;4995271;28;20366;-79
2021/09/08 12:08:50;;;;;;;19.77;13.20;;;13.70;99.90;;;;;;4994026;28;20031;-80
2021/09/08 12:11:46;;;;;;;25.45;14.52;;;13.70;99.90;;;;;;4994894;28;20042;-80
2021/09/08 12:14:25;;;;;;;21.13;14.02;;;13.60;99.90;;;;;;4993548;28;20037;-81
2021/09/08 12:16:58;;;;;;;20.48;13.57;;;13.60;99.90;;;;;;4993386;28;20027;-81
2021/09/08 12:19:37;;;;;;;21.70;14.02;;;13.60;99.90;;;;;;4993529;28;20447;-81
2021/09/08 12:22:09;;;;;;;21.55;13.52;;;13.50;99.90;;;;;;4994833;28;20018;-80
2021/09/08 12:24:41;;;;;;;19.45;14.10;;;13.50;99.90;;;;;;4995198;28;20022;-80
2021/09/08 12:27:41;;;;;;;26.70;14.85;;;13.50;99.90;;;;;;4993385;28;20380;-80
2021/09/08 12:30:24;;;;;;;23.80;13.98;;;13.50;99.90;;;;;;4993875;28;20093;-79
2021/09/08 12:33:03;;;;;;;21.30;14.18;;;13.50;99.90;;;;;;4993498;28;20027;-80
2021/09/08 12:35:46;;;;;;;19.45;13.60;;;13.40;99.90;;;;;;4997741;28;20030;-79
2021/09/08 12:38:25;;;;;;;24.67;13.60;;;13.40;99.90;;;;;;4997517;28;20459;-81
2021/09/08 12:41:10;;;;;;;23.40;13.45;;;13.30;99.90;;;;;;4997013;28;20030;-79
2021/09/08 12:43:40;;;;;;;22.20;13.05;;;13.30;99.90;;;;;;4996960;28;20025;-80
2021/09/08 12:46:08;;;;;;;19.48;12.73;;;13.20;99.90;;;;;;5000377;28;20086;-79
2021/09/08 12:48:35;;;;;;;22.08;12.82;;;13.20;99.90;;;;;;5002918;28;20062;-79
2021/09/08 12:51:04;;;;;;;18.38;12.15;;;13.10;99.90;;;;;;5002271;28;20050;-80